Time;durP1;ratioP1;P1;durP2;ratioP2;P2;SDS_P1;SDS_P2;PMS_P1;PMS_P2;Temp;Humidity;BMP_temperature;BMP_pressure;BME280_temperature;BME280_humidity;BME280_pressure;Samples;Min_cycle;Max_cycle;Signal;HPM_P1;HPM_P2
2022/05/20 00:00:36;;;;;;;22.27;16.95;;;;;;;16.78;100.00;101068.44;6254129;28;20033;-90
2022/05/20 00:03:40;;;;;;;21.05;16.88;;;;;;;16.85;100.00;101054.78;6259643;28;20052;-90
2022/05/20 00:06:42;;;;;;;20.92;16.50;;;;;;;16.82;100.00;101055.06;6260288;28;20048;-90
2022/05/20 00:09:43;;;;;;;20.63;16.45;;;;;;;16.71;100.00;101053.47;6254291;28;20144;-90
2022/05/20 00:12:46;;;;;;;22.50;16.27;;;;;;;16.67;100.00;101054.72;6260465;28;20048;-90
2022/05/20 00:15:48;;;;;;;22.15;17.52;;;;;;;16.62;100.00;101056.97;6259387;28;20033;-90
2022/05/20 00:18:50;;;;;;;24.05;17.23;;;;;;;16.57;100.00;101053.00;6258211;28;20565;-89
2022/05/20 00:21:52;;;;;;;19.17;16.63;;;;;;;16.51;100.00;101050.97;6256793;28;20071;-88
2022/05/20 00:28:22;;;;;;;;;;;;;;;16.52;100.00;101063.09;6243563;28;20057;-90
2022/05/20 00:31:25;;;;;;;21.13;17.75;;;;;;;16.60;100.00;101070.19;6260284;28;20394;-90
2022/05/20 00:34:27;;;;;;;22.00;17.77;;;;;;;16.75;100.00;101073.13;6253443;28;20056;-89
2022/05/20 00:37:29;;;;;;;26.10;19.02;;;;;;;16.76;100.00;101072.13;6257816;28;20064;-90
2022/05/20 00:40:32;;;;;;;22.95;18.35;;;;;;;16.74;100.00;101063.63;6238633;28;20796;-90
2022/05/20 00:43:44;;;;;;;21.80;17.40;;;;;;;16.83;100.00;101060.16;6252982;28;20050;-90
2022/05/20 00:46:46;;;;;;;23.83;18.98;;;;;;;16.77;100.00;101052.88;6261526;28;20052;-90
2022/05/20 00:49:52;;;;;;;20.55;17.77;;;;;;;16.66;100.00;101053.09;6241288;28;20500;-90
2022/05/20 00:52:54;;;;;;;22.02;18.23;;;;;;;16.69;100.00;101052.78;6255386;28;20049;-90
2022/05/20 00:55:56;;;;;;;22.05;18.67;;;;;;;16.64;100.00;101057.63;6238359;28;20059;-90
2022/05/20 00:58:59;;;;;;;25.33;19.30;;;;;;;16.67;100.00;101067.78;6239296;28;20537;-91
2022/05/20 01:02:06;;;;;;;24.95;18.73;;;;;;;16.68;100.00;101059.81;6244386;28;20823;-91
2022/05/20 01:05:24;;;;;;;24.80;18.90;;;;;;;16.67;100.00;101063.41;6262935;28;20119;-91
2022/05/20 01:08:33;;;;;;;24.15;18.75;;;;;;;16.70;100.00;101057.06;6242014;28;20384;-90
2022/05/20 01:11:37;;;;;;;22.80;18.70;;;;;;;16.71;100.00;101067.34;6249323;28;20044;-91
2022/05/20 01:14:40;;;;;;;26.90;18.30;;;;;;;16.71;100.00;101063.91;6247650;28;20679;-90
2022/05/20 01:17:44;;;;;;;24.52;19.88;;;;;;;16.66;100.00;101074.81;6242895;28;20041;-91
2022/05/20 01:20:48;;;;;;;24.02;19.33;;;;;;;16.64;100.00;101074.13;6254198;28;20029;-91
2022/05/20 01:23:50;;;;;;;27.42;21.25;;;;;;;16.51;100.00;101074.50;6261680;28;20112;-90
2022/05/20 01:26:52;;;;;;;29.52;20.58;;;;;;;16.36;100.00;101075.94;6259920;28;20041;-90
2022/05/20 01:29:54;;;;;;;26.83;21.08;;;;;;;16.25;100.00;101073.56;6259944;28;20041;-90
2022/05/20 01:32:59;;;;;;;33.33;22.90;;;;;;;16.10;100.00;101076.63;6241867;28;20045;-90
2022/05/20 01:36:04;;;;;;;30.17;21.70;;;;;;;15.97;100.00;101077.91;6260181;28;20048;-90
2022/05/20 01:39:06;;;;;;;32.67;21.85;;;;;;;15.78;100.00;101077.00;6245179;28;20167;-90
2022/05/20 01:42:28;;;;;;;31.58;21.05;;;;;;;15.59;100.00;101077.84;6235435;28;20410;-91
2022/05/20 01:45:50;;;;;;;32.00;21.13;;;;;;;15.58;100.00;101084.03;6240749;28;20033;-90
2022/05/20 01:49:10;;;;;;;27.52;20.50;;;;;;;15.31;100.00;101086.53;6251428;28;20036;-91
2022/05/20 01:52:42;;;;;;;30.10;20.95;;;;;;;15.32;100.00;101090.78;6248319;28;20513;-90
2022/05/20 01:55:54;;;;;;;30.50;20.08;;;;;;;15.26;100.00;101086.94;6221436;28;20110;-90
2022/05/20 01:59:14;;;;;;;27.30;20.38;;;;;;;15.20;100.00;101084.88;6260184;28;20041;-90
2022/05/20 02:02:32;;;;;;;28.35;18.95;;;;;;;15.08;100.00;101092.84;6232850;28;20049;-90
2022/05/20 02:05:52;;;;;;;26.88;17.80;;;;;;;14.99;100.00;101092.84;6269470;28;20051;-90
2022/05/20 02:09:05;;;;;;;28.77;18.15;;;;;;;14.90;100.00;101094.44;6242344;28;20053;-91
2022/05/20 02:12:11;;;;;;;26.33;17.27;;;;;;;14.85;100.00;101097.47;6242019;28;20068;-91
2022/05/20 02:15:47;;;;;;;24.80;17.45;;;;;;;14.78;100.00;101088.56;6232652;28;20041;-90
2022/05/20 02:18:59;;;;;;;27.52;18.00;;;;;;;14.79;100.00;101090.19;6257318;28;20072;-90
2022/05/20 02:22:05;;;;;;;30.92;19.25;;;;;;;14.65;100.00;101093.19;6242735;28;20052;-90
2022/05/20 02:25:12;;;;;;;28.98;18.17;;;;;;;14.54;100.00;101086.31;6238754;28;20042;-91
2022/05/20 02:28:20;;;;;;;29.35;18.13;;;;;;;14.51;100.00;101091.75;6243791;28;20067;-90
2022/05/20 02:31:29;;;;;;;28.40;18.88;;;;;;;14.42;100.00;101080.34;6225089;28;20044;-91
2022/05/20 02:34:34;;;;;;;27.65;19.25;;;;;;;14.41;100.00;101085.69;6245087;28;20049;-90
2022/05/20 02:37:37;;;;;;;26.42;18.88;;;;;;;14.42;100.00;101084.72;6265215;28;20041;-90
2022/05/20 02:40:45;;;;;;;30.38;20.38;;;;;;;14.43;100.00;101084.59;6260992;28;20516;-90
2022/05/20 02:43:47;;;;;;;30.48;19.73;;;;;;;14.38;100.00;101085.94;6243291;28;20044;-90
2022/05/20 02:46:50;;;;;;;30.95;20.05;;;;;;;14.36;100.00;101093.06;6260022;28;20049;-90
2022/05/20 02:49:52;;;;;;;30.77;20.55;;;;;;;14.35;100.00;101100.03;6233963;28;20060;-90
2022/05/20 02:52:54;;;;;;;28.35;19.48;;;;;;;14.26;100.00;101100.00;6231599;28;20049;-90
2022/05/20 02:55:56;;;;;;;31.73;20.13;;;;;;;14.24;100.00;101107.97;6252207;28;20410;-90
2022/05/20 03:05:38;;;;;;;32.22;19.65;;;;;;;14.13;100.00;101118.44;6255116;28;20041;-90
2022/05/20 03:08:41;;;;;;;30.58;19.83;;;;;;;14.23;100.00;101114.13;6261131;28;20434;-90
2022/05/20 03:11:44;;;;;;;31.55;20.52;;;;;;;14.34;100.00;101110.63;6248633;28;20144;-90
2022/05/20 03:14:47;;;;;;;29.95;20.25;;;;;;;14.35;100.00;101112.25;6239924;28;20537;-90
2022/05/20 03:17:48;;;;;;;29.40;19.40;;;;;;;14.41;100.00;101119.56;6241244;28;20692;-90
2022/05/20 03:20:51;;;;;;;33.45;21.10;;;;;;;14.46;100.00;101119.97;6264501;28;20542;-90
2022/05/20 03:23:53;;;;;;;31.20;19.52;;;;;;;14.37;100.00;101123.38;6241238;28;20052;-90
2022/05/20 03:26:55;;;;;;;31.05;20.65;;;;;;;14.29;100.00;101125.81;6265736;28;20525;-90
2022/05/20 03:29:57;;;;;;;30.15;20.40;;;;;;;14.19;100.00;101126.56;6247088;28;20509;-90
2022/05/20 03:32:59;;;;;;;26.60;19.58;;;;;;;14.16;100.00;101128.59;6265127;28;20068;-90
2022/05/20 03:36:00;;;;;;;28.08;18.70;;;;;;;14.15;100.00;101133.00;6257412;28;20052;-90
2022/05/20 03:39:03;;;;;;;27.02;18.90;;;;;;;14.19;100.00;101134.41;6252415;28;20048;-90
2022/05/20 03:42:05;;;;;;;29.95;20.40;;;;;;;14.20;100.00;101130.00;6244724;28;20080;-90
2022/05/20 03:45:09;;;;;;;25.98;18.80;;;;;;;14.21;100.00;101136.88;6245126;28;20576;-90
2022/05/20 03:48:11;;;;;;;27.55;19.80;;;;;;;14.21;100.00;101135.09;6246245;28;20082;-91
2022/05/20 03:51:14;;;;;;;29.52;19.52;;;;;;;14.31;100.00;101148.16;6245758;28;20140;-90
2022/05/20 03:54:18;;;;;;;27.33;19.90;;;;;;;14.36;100.00;101152.94;6272135;28;20060;-90
2022/05/20 03:57:20;;;;;;;27.40;18.70;;;;;;;14.44;100.00;101153.97;6258790;28;20504;-90
2022/05/20 04:00:22;;;;;;;27.70;19.23;;;;;;;14.53;100.00;101154.13;6262744;28;20049;-90
2022/05/20 04:03:24;;;;;;;28.20;18.90;;;;;;;14.56;100.00;101156.53;6261991;28;20055;-91
2022/05/20 04:06:26;;;;;;;26.85;18.67;;;;;;;14.64;100.00;101160.09;6251339;28;20064;-90
2022/05/20 04:09:28;;;;;;;26.45;18.05;;;;;;;14.74;100.00;101170.56;6237724;28;20142;-90
2022/05/20 04:12:35;;;;;;;26.85;17.33;;;;;;;14.78;100.00;101173.72;6257663;28;20170;-91
2022/05/20 04:15:37;;;;;;;22.98;17.05;;;;;;;14.85;100.00;101173.03;6263493;28;20561;-90
2022/05/20 04:18:41;;;;;;;22.90;16.95;;;;;;;14.91;100.00;101178.72;6256944;28;20045;-91
2022/05/20 04:21:43;;;;;;;24.70;16.70;;;;;;;15.00;100.00;101181.31;6242657;28;20044;-91
2022/05/20 04:24:45;;;;;;;23.48;15.73;;;;;;;15.04;100.00;101184.50;6236786;28;20091;-91
2022/05/20 04:27:46;;;;;;;21.55;15.77;;;;;;;15.08;100.00;101188.50;6250497;28;20041;-90
2022/05/20 04:30:56;;;;;;;22.83;15.55;;;;;;;14.99;100.00;101184.06;6256254;28;20040;-91
2022/05/20 04:33:58;;;;;;;23.17;16.02;;;;;;;14.94;100.00;101181.06;6267480;28;20044;-91
2022/05/20 04:37:00;;;;;;;19.70;14.52;;;;;;;14.99;100.00;101176.25;6274974;28;20051;-90
2022/05/20 04:40:02;;;;;;;24.45;15.40;;;;;;;14.94;100.00;101194.91;6270141;28;20049;-91
2022/05/20 04:49:46;;;;;;;22.58;15.05;;;;;;;15.11;100.00;101187.41;6259931;28;20421;-90
2022/05/20 04:52:48;;;;;;;20.60;14.55;;;;;;;15.12;100.00;101200.28;6254263;28;20133;-90
2022/05/20 04:55:49;;;;;;;18.02;14.52;;;;;;;15.16;100.00;101200.88;6271576;28;20477;-91
2022/05/20 04:58:51;;;;;;;22.17;16.05;;;;;;;15.26;100.00;101202.53;6238676;28;20050;-91
2022/05/20 05:01:54;;;;;;;21.52;16.77;;;;;;;15.46;100.00;101199.94;6247739;28;20066;-90
2022/05/20 05:04:56;;;;;;;19.67;15.18;;;;;;;15.53;100.00;101203.66;6268616;28;20048;-91
2022/05/20 05:07:58;;;;;;;19.50;15.05;;;;;;;15.62;100.00;101204.59;6247540;28;20164;-90
2022/05/20 05:11:01;;;;;;;18.58;13.98;;;;;;;15.67;100.00;101200.59;6246216;28;20051;-90
2022/05/20 05:14:03;;;;;;;16.25;12.70;;;;;;;15.58;100.00;101208.47;6253032;28;20053;-91
2022/05/20 05:17:07;;;;;;;15.05;11.50;;;;;;;15.35;100.00;101208.69;6273085;28;20154;-91
2022/05/20 05:20:12;;;;;;;16.23;11.98;;;;;;;15.09;100.00;101203.19;6244529;28;20041;-91
2022/05/20 05:23:15;;;;;;;13.73;11.38;;;;;;;15.18;100.00;101210.19;6252692;28;20043;-91
2022/05/20 05:26:17;;;;;;;14.52;11.65;;;;;;;15.34;100.00;101207.06;6245019;28;20044;-91
2022/05/20 05:29:19;;;;;;;15.07;10.80;;;;;;;15.32;100.00;101208.97;6260158;28;20051;-90
2022/05/20 05:32:21;;;;;;;15.05;10.60;;;;;;;15.23;100.00;101204.59;6263308;28;20113;-91
2022/05/20 05:35:29;;;;;;;14.38;11.10;;;;;;;15.04;100.00;101202.75;6260401;28;20087;-91
2022/05/20 05:38:31;;;;;;;15.27;11.13;;;;;;;14.92;100.00;101196.00;6247447;28;20040;-91
2022/05/20 05:41:33;;;;;;;16.80;11.88;;;;;;;14.74;100.00;101198.41;6255811;28;20045;-91
2022/05/20 05:44:35;;;;;;;15.95;12.18;;;;;;;14.56;100.00;101200.81;6261749;28;20504;-91
2022/05/20 05:47:37;;;;;;;13.30;11.60;;;;;;;14.56;100.00;101203.41;6266753;28;20160;-90
2022/05/20 05:50:40;;;;;;;17.33;12.00;;;;;;;14.61;100.00;101202.06;6254472;28;20139;-91
2022/05/20 05:53:42;;;;;;;18.50;12.35;;;;;;;14.62;100.00;101219.34;6255742;28;20033;-91
2022/05/20 05:56:44;;;;;;;14.82;11.70;;;;;;;14.56;100.00;101214.66;6269346;28;20481;-92
2022/05/20 05:59:46;;;;;;;12.48;10.85;;;;;;;14.54;100.00;101220.97;6265111;28;20048;-91
2022/05/20 06:02:48;;;;;;;15.98;11.15;;;;;;;14.55;100.00;101226.00;6249869;28;20540;-90
2022/05/20 06:05:50;;;;;;;13.70;11.35;;;;;;;14.70;100.00;101225.69;6260997;28;20037;-91
2022/05/20 06:08:52;;;;;;;13.55;10.60;;;;;;;14.68;100.00;101219.78;6257040;28;20079;-91
2022/05/20 06:11:54;;;;;;;13.43;10.45;;;;;;;14.73;100.00;101218.44;6236097;28;20041;-92
2022/05/20 06:14:56;;;;;;;12.43;9.93;;;;;;;14.94;100.00;101218.38;6246466;28;20597;-91
2022/05/20 06:17:59;;;;;;;13.65;10.15;;;;;;;14.89;100.00;101212.72;6259119;28;20037;-91
2022/05/20 06:21:04;;;;;;;14.32;11.55;;;;;;;14.90;100.00;101216.97;6258222;28;20119;-91
2022/05/20 06:24:08;;;;;;;14.82;11.55;;;;;;;14.90;100.00;101210.94;6234123;28;20049;-93
2022/05/20 06:27:10;;;;;;;13.18;11.75;;;;;;;15.06;100.00;101212.09;6224292;28;20554;-92
2022/05/20 06:30:15;;;;;;;17.98;13.52;;;;;;;15.13;100.00;101206.31;6250939;28;20446;-92
2022/05/20 06:33:17;;;;;;;14.70;12.40;;;;;;;15.23;100.00;101204.59;6235572;28;20498;-91
2022/05/20 06:39:52;;;;;;;16.48;13.00;;;;;;;15.16;100.00;101195.66;6250948;28;20037;-92
2022/05/20 06:42:54;;;;;;;16.27;13.00;;;;;;;15.26;100.00;101192.09;6256191;28;20041;-92
2022/05/20 06:45:58;;;;;;;17.80;13.13;;;;;;;15.24;100.00;101199.22;6235643;28;20051;-93
2022/05/20 06:49:20;;;;;;;18.95;13.18;;;;;;;15.29;100.00;101201.44;6240744;28;20578;-95
2022/05/20 06:52:23;;;;;;;15.60;13.00;;;;;;;15.42;100.00;101198.56;6221207;28;20048;-93
2022/05/20 06:55:41;;;;;;;16.02;12.05;;;;;;;15.26;100.00;101192.09;6252409;28;20049;-92
2022/05/20 06:58:44;;;;;;;17.77;12.30;;;;;;;15.26;100.00;101199.91;6239512;28;20041;-94
2022/05/20 07:01:46;;;;;;;17.90;13.38;;;;;;;15.28;100.00;101200.59;6256555;28;20319;-92
2022/05/20 07:05:09;;;;;;;15.80;11.70;;;;;;;15.35;100.00;101190.44;6236215;28;20355;-92
2022/05/20 07:08:11;;;;;;;15.00;11.52;;;;;;;15.27;100.00;101188.50;6233721;28;20049;-92
2022/05/20 07:11:24;;;;;;;16.55;12.95;;;;;;;15.32;100.00;101184.69;6241389;28;20048;-92
2022/05/20 07:14:26;;;;;;;19.23;12.82;;;;;;;15.34;100.00;101185.38;6256992;28;20052;-93
2022/05/20 07:17:28;;;;;;;17.45;11.93;;;;;;;15.31;100.00;101183.03;6256092;28;20075;-91
2022/05/20 07:20:30;;;;;;;15.38;12.43;;;;;;;15.35;100.00;101174.78;6229814;28;20053;-91
2022/05/20 07:23:33;;;;;;;18.15;12.73;;;;;;;15.36;100.00;101162.59;6248922;28;20129;-91
2022/05/20 07:26:37;;;;;;;14.90;12.80;;;;;;;15.50;100.00;101167.38;6253083;28;20505;-91
2022/05/20 07:29:40;;;;;;;14.45;11.55;;;;;;;15.56;100.00;101158.19;6255360;28;20029;-92
2022/05/20 07:32:42;;;;;;;15.85;11.68;;;;;;;15.64;100.00;101155.72;6240269;28;20504;-91
2022/05/20 07:35:44;;;;;;;14.07;10.75;;;;;;;15.69;100.00;101150.91;6256613;28;20037;-91
2022/05/20 07:38:46;;;;;;;15.77;11.55;;;;;;;15.67;100.00;101148.41;6246934;28;20068;-94
2022/05/20 07:41:48;;;;;;;14.23;10.98;;;;;;;15.79;100.00;101140.47;6231249;28;20045;-92
2022/05/20 07:44:50;;;;;;;14.00;10.98;;;;;;;15.74;100.00;101137.47;6229844;28;20072;-93
2022/05/20 07:47:52;;;;;;;12.63;10.85;;;;;;;15.80;100.00;101148.19;6229881;28;20454;-91
2022/05/20 07:51:01;;;;;;;15.45;11.48;;;;;;;15.83;100.00;101128.78;6244895;28;20090;-91
2022/05/20 07:54:08;;;;;;;16.83;11.90;;;;;;;15.92;100.00;101127.94;6240322;28;20044;-90
2022/05/20 07:57:13;;;;;;;14.32;11.75;;;;;;;15.94;100.00;101131.22;6256001;28;20070;-91
2022/05/20 08:00:15;;;;;;;15.43;11.88;;;;;;;16.00;100.00;101130.69;6258867;28;20049;-91
2022/05/20 08:04:52;;;;;;;14.45;11.70;;;;;;;16.05;100.00;101128.47;6252161;28;20041;-90
2022/05/20 08:06:40;;;;;;;14.70;11.52;;;;;;;16.06;100.00;101121.44;6254396;28;20056;-91
2022/05/20 08:09:43;;;;;;;14.63;12.18;;;;;;;16.15;100.00;101121.41;6242402;28;20044;-91
2022/05/20 08:12:45;;;;;;;15.20;11.73;;;;;;;16.27;100.00;101109.00;6247886;28;20133;-92
2022/05/20 08:15:47;;;;;;;18.17;11.65;;;;;;;16.31;100.00;101106.91;6244191;28;20120;-92
2022/05/20 08:18:50;;;;;;;16.00;11.65;;;;;;;16.40;100.00;101111.28;6245164;28;20097;-95
2022/05/20 08:21:52;;;;;;;13.57;10.80;;;;;;;16.34;100.00;101104.81;6243416;28;20544;-94
2022/05/20 08:24:57;;;;;;;15.27;12.77;;;;;;;16.43;100.00;101103.16;6254832;28;20041;-94
2022/05/20 08:28:01;;;;;;;12.85;11.55;;;;;;;16.54;100.00;101100.31;6260013;28;20265;-94
2022/05/20 08:31:06;;;;;;;16.65;12.60;;;;;;;16.51;100.00;101099.81;6259024;28;20041;-94
2022/05/20 08:34:09;;;;;;;16.00;11.43;;;;;;;16.63;100.00;101093.41;6252906;28;20033;-93
2022/05/20 08:37:13;;;;;;;14.57;12.18;;;;;;;16.60;100.00;101098.13;6263236;28;20064;-94
2022/05/20 08:40:29;;;;;;;15.10;10.50;;;;;;;16.64;100.00;101095.03;6238898;28;20049;-96
2022/05/20 08:43:34;;;;;;;13.40;10.65;;;;;;;16.79;100.00;101092.78;6243221;28;20038;-95
2022/05/20 08:46:36;;;;;;;13.98;11.63;;;;;;;16.96;100.00;101094.59;6249698;28;20482;-94
2022/05/20 08:49:39;;;;;;;17.92;12.25;;;;;;;16.97;100.00;101091.03;6238862;28;20049;-94
2022/05/20 08:52:42;;;;;;;17.27;11.82;;;;;;;17.08;100.00;101089.16;6247426;28;20043;-95
2022/05/20 08:55:45;;;;;;;13.73;11.15;;;;;;;17.12;100.00;101078.25;6251185;28;20053;-94
2022/05/20 08:58:59;;;;;;;14.63;11.20;;;;;;;17.25;100.00;101077.84;6236633;28;20139;-94
2022/05/20 09:02:01;;;;;;;14.18;11.27;;;;;;;17.37;100.00;101076.66;6242463;28;20042;-93
2022/05/20 09:05:24;;;;;;;16.23;11.63;;;;;;;17.44;100.00;101067.22;6247020;28;20046;-93
2022/05/20 09:08:33;;;;;;;13.65;11.48;;;;;;;17.47;100.00;101070.50;6245727;28;20474;-93
2022/05/20 09:11:35;;;;;;;16.02;11.25;;;;;;;17.61;100.00;101065.53;6229313;28;20732;-94
2022/05/20 09:18:06;;;;;;;14.75;11.13;;;;;;;17.90;100.00;101056.56;6244732;28;20073;-94
2022/05/20 09:21:26;;;;;;;17.13;12.65;;;;;;;18.01;100.00;101050.22;6229305;28;20056;-93
2022/05/20 09:24:36;;;;;;;14.63;11.73;;;;;;;18.08;100.00;101048.59;6239130;28;20294;-93
2022/05/20 09:27:39;;;;;;;19.05;12.65;;;;;;;18.16;100.00;101040.78;6230061;28;20065;-93
2022/05/20 09:30:47;;;;;;;15.10;12.65;;;;;;;18.43;100.00;101037.13;6250233;28;20045;-93
2022/05/20 09:34:11;;;;;;;14.68;12.27;;;;;;;18.63;100.00;101031.56;6226650;28;20041;-92
2022/05/20 09:37:14;;;;;;;13.23;11.25;;;;;;;18.74;98.90;101028.66;6254001;28;20052;-92
2022/05/20 09:40:47;;;;;;;15.57;12.40;;;;;;;18.86;100.00;101021.31;6239495;28;20040;-92
2022/05/20 09:44:04;;;;;;;12.85;11.50;;;;;;;19.04;98.53;101016.72;6255244;28;20049;-92
2022/05/20 09:47:30;;;;;;;16.30;12.90;;;;;;;19.25;100.00;101012.75;6242793;28;20036;-92
2022/05/20 09:50:38;;;;;;;14.80;11.10;;;;;;;19.36;99.70;101002.75;6245876;28;20397;-91
2022/05/20 09:53:43;;;;;;;16.67;13.55;;;;;;;19.47;97.68;100993.69;6223839;28;20045;-91
2022/05/20 09:56:58;;;;;;;13.10;11.35;;;;;;;19.60;100.00;100995.78;6241348;28;20037;-85
2022/05/20 10:00:10;;;;;;;15.05;11.85;;;;;;;19.82;97.50;100982.94;6244327;28;20045;-82
2022/05/20 10:03:42;;;;;;;13.32;11.93;;;;;;;19.96;96.21;100979.59;6244555;28;20049;-82
2022/05/20 10:06:51;;;;;;;13.77;11.45;;;;;;;20.01;96.95;100967.56;6253098;28;20052;-82
2022/05/20 10:10:08;;;;;;;13.32;11.85;;;;;;;20.10;96.30;100965.72;6239992;28;20037;-82
2022/05/20 10:13:27;;;;;;;15.23;12.63;;;;;;;20.26;94.06;100954.28;6247083;28;20052;-82
2022/05/20 10:16:34;;;;;;;13.18;11.35;;;;;;;20.40;93.13;100947.47;6231501;28;20041;-83
2022/05/20 10:20:01;;;;;;;14.02;11.05;;;;;;;20.56;95.63;100942.09;6246684;28;20497;-81
2022/05/20 10:23:20;;;;;;;15.90;12.25;;;;;;;20.76;91.89;100929.28;6244418;28;20214;-82
2022/05/20 10:26:22;;;;;;;15.15;11.50;;;;;;;20.77;91.60;100916.94;6249733;28;20126;-83
2022/05/20 10:33:12;;;;;;;12.20;10.95;;;;;;;21.16;90.39;100927.25;6257548;28;20049;-82
2022/05/20 10:36:22;;;;;;;14.73;11.90;;;;;;;21.34;88.95;100926.91;6252096;28;20038;-82
2022/05/20 10:39:54;;;;;;;15.30;11.20;;;;;;;21.43;90.02;100938.19;6245895;28;20053;-82
2022/05/20 10:43:09;;;;;;;14.43;11.68;;;;;;;21.55;88.93;100934.09;6155344;28;20039;-82
2022/05/20 10:50:15;;;;;;;14.32;12.73;;;;;;;21.83;88.01;100941.31;6155927;28;20133;-82
2022/05/20 10:53:24;;;;;;;14.10;10.88;;;;;;;21.83;88.95;100941.31;6106659;29;20066;-82
2022/05/20 10:56:41;;;;;;;13.45;10.95;;;;;;;21.80;88.47;100931.97;6105267;29;20088;-83
2022/05/20 10:59:48;;;;;;;15.75;13.25;;;;;;;21.88;86.70;100931.03;6093153;29;20232;-82
2022/05/20 11:03:17;;;;;;;13.15;11.75;;;;;;;22.03;89.71;100923.09;6094863;29;20055;-82
2022/05/20 11:06:30;;;;;;;13.80;12.40;;;;;;;22.34;85.69;100909.66;6101290;29;20062;-83
2022/05/20 11:10:11;;;;;;;12.48;11.07;;;;;;;22.30;87.65;100901.28;6110948;29;20526;-83
2022/05/20 11:13:58;;;;;;;16.63;12.05;;;;;;;22.34;85.66;100884.06;6109229;29;20067;-82
2022/05/20 11:17:38;;;;;;;13.73;11.63;;;;;;;22.46;83.68;100875.63;6107269;29;20055;-82
2022/05/20 11:20:58;;;;;;;14.90;12.70;;;;;;;22.57;87.64;100873.28;6153897;28;20090;-82
2022/05/20 11:24:12;;;;;;;14.82;11.90;;;;;;;22.83;85.67;100871.88;6160470;28;20039;-82
2022/05/20 11:27:17;;;;;;;13.60;11.68;;;;;;;23.37;82.13;100865.06;6206795;28;20049;-81
2022/05/20 11:30:30;;;;;;;13.70;12.30;;;;;;;24.10;78.74;100849.41;6229866;28;20076;-82
2022/05/20 11:33:47;;;;;;;14.20;10.98;;;;;;;24.48;73.24;100849.63;6252845;28;20044;-82
2022/05/20 11:36:49;;;;;;;14.80;11.80;;;;;;;24.57;73.03;100844.13;6249077;28;20592;-82
2022/05/20 11:40:06;;;;;;;16.40;11.32;;;;;;;24.39;72.12;100834.13;6254936;28;20090;-82
2022/05/20 11:43:29;;;;;;;12.13;10.70;;;;;;;24.17;73.09;100833.53;6238932;28;20125;-82
2022/05/20 11:46:37;;;;;;;12.85;11.02;;;;;;;24.06;71.98;100821.72;6271041;28;20040;-82
2022/05/20 11:50:11;;;;;;;13.32;9.13;;;;;;;24.26;73.07;100808.50;6272871;28;20041;-81
2022/05/20 11:53:37;;;;;;;12.27;10.30;;;;;;;24.32;71.47;100793.63;6254820;28;20142;-82
2022/05/20 11:56:45;;;;;;;13.73;10.63;;;;;;;24.50;76.19;100791.22;6264621;28;20033;-82
2022/05/20 12:00:03;;;;;;;9.55;8.50;;;;;;;24.98;71.27;100787.41;6242523;28;20049;-82
2022/05/20 12:03:16;;;;;;;9.27;8.27;;;;;;;25.53;65.38;100788.56;6238967;28;20072;-83
2022/05/20 12:06:21;;;;;;;8.07;7.13;;;;;;;25.67;61.69;100776.06;6247277;28;20068;-82
2022/05/20 12:09:45;;;;;;;11.05;9.68;;;;;;;26.20;63.70;100762.38;6246373;28;20402;-83
2022/05/20 12:13:09;;;;;;;10.10;8.63;;;;;;;26.41;62.13;100761.16;6247575;28;20037;-83
2022/05/20 12:16:14;;;;;;;11.35;8.90;;;;;;;26.55;62.17;100747.75;6254193;28;20161;-82
2022/05/20 12:26:43;;;;;;;8.82;6.95;;;;;;;26.48;59.81;100721.25;6248761;28;20048;-82
2022/05/20 12:29:55;;;;;;;9.90;8.80;;;;;;;26.24;60.86;100715.00;6254352;28;20068;-82
2022/05/20 12:32:57;;;;;;;9.20;6.97;;;;;;;26.07;64.11;100713.94;6252946;28;20806;-82
2022/05/20 12:36:14;;;;;;;8.50;7.38;;;;;;;26.26;59.92;100717.41;6255049;28;20050;-82
2022/05/20 12:39:47;;;;;;;9.45;7.43;;;;;;;26.48;65.01;100699.19;6257941;28;20134;-82
2022/05/20 12:43:08;;;;;;;8.80;7.00;;;;;;;26.04;59.30;100685.16;6251604;28;20142;-82
2022/05/20 12:46:18;;;;;;;7.47;6.78;;;;;;;25.60;61.45;100660.47;6255865;28;20034;-82
2022/05/20 12:49:23;;;;;;;9.70;7.25;;;;;;;25.02;63.79;100659.63;6238306;28;20088;-82
2022/05/20 12:52:34;;;;;;;9.48;6.55;;;;;;;24.72;67.94;100648.81;6226256;28;20045;-80
2022/05/20 12:55:43;;;;;;;8.23;6.20;;;;;;;24.80;69.08;100643.25;6253751;28;20040;-80
2022/05/20 12:58:45;;;;;;;8.75;6.38;;;;;;;24.99;68.50;100646.81;6238728;28;20072;-80
2022/05/20 13:02:06;;;;;;;7.75;6.63;;;;;;;25.21;68.27;100638.53;6255130;28;20049;-80
2022/05/20 13:05:35;;;;;;;8.60;6.50;;;;;;;25.62;68.35;100635.38;6253424;28;20067;-80
2022/05/20 13:08:46;;;;;;;7.40;6.25;;;;;;;25.90;66.97;100629.59;6250975;28;20898;-80
2022/05/20 13:11:52;;;;;;;7.32;6.55;;;;;;;25.98;64.08;100618.69;6221004;28;20045;-80
2022/05/20 13:15:06;;;;;;;6.47;5.88;;;;;;;25.86;63.54;100601.91;6256191;28;20064;-80
2022/05/20 13:18:17;;;;;;;7.07;5.70;;;;;;;26.36;64.15;100596.44;6259764;28;20033;-80
2022/05/20 13:21:21;;;;;;;7.57;5.68;;;;;;;26.36;63.90;100582.34;6237486;28;20037;-80
2022/05/20 13:24:35;;;;;;;6.32;5.82;;;;;;;26.25;60.33;100586.56;6234540;28;20515;-80
2022/05/20 13:27:45;;;;;;;6.78;5.30;;;;;;;26.17;64.71;100568.28;6238278;28;20043;-80
2022/05/20 13:30:47;;;;;;;;;;;;;;;26.42;64.71;100549.59;6233211;28;20037;-80
2022/05/20 13:33:49;;;;;;;7.10;6.10;;;;;;;27.06;61.87;100553.34;6241216;28;19964;-80
2022/05/20 13:36:51;;;;;;;6.13;5.13;;;;;;;27.49;57.38;100549.56;6249014;28;20040;-80
2022/05/20 13:39:59;;;;;;;7.10;5.82;;;;;;;27.25;60.80;100540.81;6232161;28;20552;-79
2022/05/20 13:43:02;;;;;;;7.57;6.30;;;;;;;26.78;57.40;100535.41;6256171;28;20090;-80
2022/05/20 13:49:32;;;;;;;5.30;4.80;;;;;;;26.18;61.91;100530.91;6247445;28;20581;-80
2022/05/20 13:52:35;;;;;;;6.13;5.05;;;;;;;26.05;67.69;100514.38;6228464;28;20061;-80
2022/05/20 13:55:39;;;;;;;6.68;5.88;;;;;;;26.81;64.51;100510.25;6246250;28;20115;-80
2022/05/20 13:58:43;;;;;;;7.72;5.60;;;;;;;27.89;59.90;100513.44;6244104;28;20056;-84
2022/05/20 14:01:54;;;;;;;7.13;5.05;;;;;;;28.51;57.17;100510.88;6250292;28;20052;-84
2022/05/20 14:04:56;;;;;;;7.63;6.18;;;;;;;28.64;54.78;100512.41;6258399;28;20485;-85
2022/05/20 14:08:03;;;;;;;5.82;5.00;;;;;;;28.83;56.11;100513.00;6258937;28;20224;-84
2022/05/20 14:11:13;;;;;;;7.30;5.07;;;;;;;28.97;55.19;100500.16;6242567;28;20175;-84
2022/05/20 14:14:24;;;;;;;5.45;4.90;;;;;;;29.07;55.66;100488.84;6234331;28;20638;-84
2022/05/20 14:17:28;;;;;;;7.65;6.18;;;;;;;29.22;50.76;100470.44;6250099;28;20037;-84
2022/05/20 14:20:35;;;;;;;6.35;5.55;;;;;;;28.52;57.57;100464.56;6242417;28;20052;-85
2022/05/20 14:23:45;;;;;;;6.25;5.65;;;;;;;27.75;54.97;100456.19;6258952;28;20454;-85
2022/05/20 14:26:50;;;;;;;5.60;5.10;;;;;;;27.14;60.66;100435.28;6248898;28;20110;-84
2022/05/20 14:29:53;;;;;;;6.07;5.47;;;;;;;26.83;61.08;100431.94;6229789;28;20050;-84
2022/05/20 14:33:00;;;;;;;7.20;5.22;;;;;;;26.49;62.64;100428.19;6248202;28;20399;-84
2022/05/20 14:36:11;;;;;;;8.65;5.95;;;;;;;26.01;64.80;100439.72;6234225;28;20037;-84
2022/05/20 14:39:16;;;;;;;6.85;6.13;;;;;;;25.60;67.85;100443.09;6241469;28;20045;-84
2022/05/20 14:42:26;;;;;;;7.95;6.38;;;;;;;25.16;68.21;100432.50;6247436;28;20128;-84
2022/05/20 14:45:36;;;;;;;7.18;6.10;;;;;;;24.79;73.70;100410.47;6224827;28;20545;-84
2022/05/20 14:48:42;;;;;;;6.70;5.95;;;;;;;24.43;74.61;100383.66;6243240;28;20466;-84
2022/05/20 14:52:05;;;;;;;9.50;6.72;;;;;;;24.14;78.29;100350.72;6246446;28;20072;-84